createdAt,value
2019-02-11T00:00:10.561Z,46.50
2019-02-11T00:02:39.039Z,46.90
2019-02-11T00:05:07.674Z,46.70
2019-02-11T00:07:36.227Z,47.10
2019-02-11T00:10:05.349Z,47.20
2019-02-11T00:12:33.835Z,47.20
2019-02-11T00:15:02.385Z,47.30
2019-02-11T00:17:30.871Z,47.40
2019-02-11T00:19:59.461Z,47.70
2019-02-11T00:22:28.007Z,47.50
2019-02-11T00:24:56.533Z,47.60
2019-02-11T00:27:25.032Z,47.50
2019-02-11T00:29:53.517Z,47.50
2019-02-11T00:32:22.103Z,47.60
2019-02-11T00:34:50.662Z,47.80
2019-02-11T00:37:19.248Z,48.10
2019-02-11T00:39:47.824Z,48.00
2019-02-11T00:42:16.343Z,47.90
2019-02-11T00:44:44.874Z,48.00
2019-02-11T00:47:13.347Z,48.10
2019-02-11T00:49:41.821Z,48.00
2019-02-11T00:52:10.394Z,47.90
2019-02-11T00:54:38.946Z,47.70
2019-02-11T00:57:07.507Z,47.50
2019-02-11T00:59:36.050Z,47.70
2019-02-11T01:02:04.498Z,47.90
2019-02-11T01:04:32.995Z,48.10
2019-02-11T01:07:01.552Z,47.90
2019-02-11T01:09:30.044Z,47.80
2019-02-11T01:11:58.606Z,47.40
2019-02-11T01:14:27.170Z,47.20
2019-02-11T01:16:55.775Z,47.50
2019-02-11T01:19:24.339Z,47.60
2019-02-11T01:21:52.815Z,47.70
2019-02-11T01:24:21.361Z,47.70
2019-02-11T01:26:49.913Z,47.80
2019-02-11T01:29:18.442Z,48.00
2019-02-11T01:31:46.985Z,47.90
2019-02-11T01:34:15.559Z,47.80
2019-02-11T01:36:44.098Z,47.70
2019-02-11T01:39:12.637Z,48.00
2019-02-11T01:41:41.121Z,48.00
2019-02-11T01:44:09.668Z,48.20
2019-02-11T01:46:38.166Z,48.20
2019-02-11T01:49:06.711Z,48.60
2019-02-11T01:51:35.268Z,48.80
2019-02-11T01:54:03.830Z,49.00
2019-02-11T01:56:32.366Z,49.00
2019-02-11T01:59:00.883Z,49.00
2019-02-11T02:01:29.425Z,48.90
2019-02-11T02:03:57.995Z,48.70
2019-02-11T02:06:26.556Z,48.70
2019-02-11T02:08:55.100Z,48.80
2019-02-11T02:11:23.644Z,48.70
2019-02-11T02:13:52.132Z,48.80
2019-02-11T02:16:20.616Z,49.00
2019-02-11T02:18:49.200Z,49.00
2019-02-11T02:21:17.753Z,49.10
2019-02-11T02:23:46.326Z,49.00
2019-02-11T02:26:14.818Z,49.00
2019-02-11T02:28:43.354Z,49.00
2019-02-11T02:31:11.934Z,49.10
2019-02-11T02:33:40.511Z,49.10
2019-02-11T02:36:09.082Z,49.20
2019-02-11T02:38:37.577Z,49.30
2019-02-11T02:41:06.133Z,49.40
2019-02-11T02:43:34.682Z,49.40
2019-02-11T02:46:03.216Z,49.50
2019-02-11T02:48:31.772Z,49.50
2019-02-11T02:51:00.339Z,49.60
2019-02-11T02:53:28.833Z,49.70
2019-02-11T02:55:57.406Z,49.80
2019-02-11T02:58:25.898Z,49.70
2019-02-11T03:00:54.375Z,49.70
2019-02-11T03:03:22.966Z,49.60
2019-02-11T03:05:52.981Z,49.60
2019-02-11T03:08:21.698Z,49.40
2019-02-11T03:10:50.258Z,49.40
2019-02-11T03:13:18.874Z,49.40
2019-02-11T03:15:47.418Z,49.40
2019-02-11T03:18:16.002Z,49.40
2019-02-11T03:20:44.621Z,49.60
2019-02-11T03:23:13.184Z,49.50
2019-02-11T03:25:41.679Z,49.40
2019-02-11T03:28:10.233Z,49.40
2019-02-11T03:30:38.733Z,49.50
2019-02-11T03:33:07.289Z,49.30
2019-02-11T03:35:35.860Z,49.50
2019-02-11T03:38:04.392Z,49.40
2019-02-11T03:40:32.962Z,49.50
2019-02-11T03:43:01.516Z,49.60
2019-02-11T03:45:30.108Z,49.60
2019-02-11T03:47:58.648Z,49.60
2019-02-11T03:50:27.278Z,49.50
2019-02-11T03:52:56.003Z,49.20
2019-02-11T03:55:24.571Z,49.10
2019-02-11T03:57:53.124Z,48.90
2019-02-11T04:00:21.708Z,49.10
2019-02-11T04:02:50.327Z,49.20
2019-02-11T04:05:18.810Z,49.70
2019-02-11T04:07:47.400Z,49.40
2019-02-11T04:10:16.096Z,49.30
2019-02-11T04:12:44.757Z,49.30
2019-02-11T04:15:13.329Z,49.50
2019-02-11T04:17:41.896Z,49.50
2019-02-11T04:20:10.608Z,49.30
2019-02-11T04:22:39.189Z,49.10
2019-02-11T04:25:08.222Z,49.20
2019-02-11T04:27:36.743Z,49.20
2019-02-11T04:30:08.529Z,49.30
2019-02-11T04:32:37.106Z,49.20
2019-02-11T04:35:06.346Z,49.20
2019-02-11T04:37:34.898Z,49.20
2019-02-11T04:40:04.356Z,49.10
2019-02-11T04:42:32.923Z,49.20
2019-02-11T04:45:01.506Z,49.10
2019-02-11T04:47:29.998Z,49.10
2019-02-11T04:49:58.588Z,49.10
2019-02-11T04:52:27.147Z,49.20
2019-02-11T04:54:55.731Z,49.30
2019-02-11T04:57:24.293Z,49.30
2019-02-11T04:59:52.860Z,49.40
2019-02-11T05:02:21.394Z,49.30
2019-02-11T05:04:49.981Z,49.40
2019-02-11T05:07:18.532Z,49.60
2019-02-11T05:09:47.094Z,49.60
2019-02-11T05:12:15.703Z,49.70
2019-02-11T05:14:44.567Z,49.70
2019-02-11T05:17:13.142Z,49.70
2019-02-11T05:19:41.707Z,49.80
2019-02-11T05:22:10.354Z,49.70
2019-02-11T05:24:38.923Z,49.60
2019-02-11T05:27:07.563Z,49.60
2019-02-11T05:29:36.125Z,49.60
2019-02-11T05:32:05.321Z,49.60
2019-02-11T05:34:33.895Z,49.60
2019-02-11T05:37:02.426Z,49.70
2019-02-11T05:39:30.967Z,49.60
2019-02-11T05:41:59.476Z,49.70
2019-02-11T05:44:28.057Z,49.70
2019-02-11T05:46:56.624Z,49.60
2019-02-11T05:49:27.093Z,49.50
2019-02-11T05:51:55.633Z,49.60
2019-02-11T05:54:24.242Z,49.50
2019-02-11T05:56:52.827Z,49.60
2019-02-11T05:59:21.415Z,49.70
2019-02-11T06:01:49.979Z,49.80
2019-02-11T06:04:18.486Z,49.80
2019-02-11T06:06:47.141Z,49.70
2019-02-11T06:09:15.686Z,49.60
2019-02-11T06:11:44.541Z,49.50
2019-02-11T06:14:13.176Z,49.40
2019-02-11T06:16:41.785Z,49.40
2019-02-11T06:19:10.276Z,49.30
2019-02-11T06:21:38.823Z,49.10
2019-02-11T06:24:07.474Z,48.80
2019-02-11T06:26:35.986Z,49.00
2019-02-11T06:29:04.626Z,49.10
2019-02-11T06:31:33.190Z,49.00
2019-02-11T06:34:01.744Z,48.80
2019-02-11T06:36:30.340Z,48.90
2019-02-11T06:38:58.945Z,48.90
2019-02-11T06:41:27.510Z,49.00
2019-02-11T06:43:56.082Z,49.10
2019-02-11T06:46:24.679Z,49.10
2019-02-11T06:48:53.259Z,49.10
2019-02-11T06:51:23.432Z,49.30
2019-02-11T06:53:52.007Z,49.30
2019-02-11T06:56:20.713Z,49.30
2019-02-11T06:58:49.226Z,49.20
2019-02-11T07:01:17.810Z,49.40
2019-02-11T07:03:46.344Z,49.50
2019-02-11T07:06:14.902Z,49.40
2019-02-11T07:08:43.481Z,49.30
2019-02-11T07:11:11.961Z,49.30
2019-02-11T07:13:40.524Z,49.20
2019-02-11T07:16:09.192Z,49.20
2019-02-11T07:18:37.721Z,49.20
2019-02-11T07:21:06.330Z,49.00
2019-02-11T07:23:34.870Z,49.00
2019-02-11T07:26:05.390Z,49.00
2019-02-11T07:28:33.736Z,49.10
2019-02-11T07:31:02.600Z,49.00
2019-02-11T07:33:32.949Z,49.20
2019-02-11T07:36:01.580Z,49.20
2019-02-11T07:38:30.221Z,49.20
2019-02-11T07:40:58.841Z,49.20
2019-02-11T07:43:29.072Z,49.20
2019-02-11T07:45:59.260Z,49.00
2019-02-11T07:48:29.571Z,48.90
2019-02-11T07:50:58.076Z,48.90
2019-02-11T07:53:26.640Z,48.60
2019-02-11T07:55:55.170Z,48.60
2019-02-11T07:58:23.917Z,48.40
2019-02-11T08:00:52.448Z,48.40
2019-02-11T08:03:21.013Z,48.30
2019-02-11T08:05:49.564Z,48.20
2019-02-11T08:08:18.141Z,47.60
2019-02-11T08:10:46.707Z,48.00
2019-02-11T08:13:15.293Z,48.00
2019-02-11T08:15:43.835Z,47.70
2019-02-11T08:18:12.369Z,47.70
2019-02-11T08:20:40.953Z,47.60
2019-02-11T08:23:13.028Z,47.30
2019-02-11T08:25:39.718Z,47.30
2019-02-11T08:28:08.265Z,47.40
2019-02-11T08:30:37.058Z,47.10
2019-02-11T08:33:05.633Z,46.70
2019-02-11T08:35:34.316Z,46.80
2019-02-11T08:38:03.158Z,46.90
2019-02-11T08:40:31.705Z,47.30
2019-02-11T08:43:00.210Z,46.90
2019-02-11T08:45:28.912Z,46.90
2019-02-11T08:47:57.485Z,46.80
2019-02-11T08:50:26.042Z,46.60
2019-02-11T08:52:54.624Z,46.70
2019-02-11T08:55:23.190Z,46.50
2019-02-11T08:57:51.773Z,46.10
2019-02-11T09:00:20.396Z,46.10
2019-02-11T09:02:49.022Z,46.30
2019-02-11T09:05:17.581Z,46.20
2019-02-11T09:07:46.306Z,46.50
2019-02-11T09:10:15.124Z,46.30
2019-02-11T09:12:43.665Z,46.30
2019-02-11T09:15:13.073Z,46.20
2019-02-11T09:17:41.616Z,46.30
2019-02-11T09:20:11.270Z,45.70
2019-02-11T09:22:39.965Z,45.80
2019-02-11T09:25:10.472Z,45.70
2019-02-11T09:27:39.175Z,46.10
2019-02-11T09:30:15.966Z,46.00
2019-02-11T09:32:44.435Z,45.50
2019-02-11T09:35:13.374Z,45.80
2019-02-11T09:37:42.145Z,45.80
2019-02-11T09:40:13.454Z,45.90
2019-02-11T09:42:42.075Z,45.80
2019-02-11T09:45:13.668Z,45.90
2019-02-11T09:47:42.229Z,45.80
2019-02-11T09:50:16.643Z,45.40
2019-02-11T09:52:45.202Z,45.40
2019-02-11T09:55:22.716Z,45.40
2019-02-11T09:57:51.371Z,44.60
2019-02-11T10:00:20.075Z,44.70
2019-02-11T10:02:48.710Z,43.60
2019-02-11T10:05:17.289Z,43.70
2019-02-11T10:07:45.979Z,43.20
2019-02-11T10:10:14.870Z,42.70
2019-02-11T10:12:43.493Z,42.70
2019-02-11T10:15:13.475Z,42.60
2019-02-11T10:17:42.205Z,42.30
2019-02-11T10:20:12.640Z,42.50
2019-02-11T10:22:41.264Z,41.40
2019-02-11T10:25:18.859Z,41.30
2019-02-11T10:27:47.422Z,40.50
2019-02-11T10:30:20.036Z,40.50
2019-02-11T10:32:48.621Z,40.20
2019-02-11T10:35:17.819Z,40.50
2019-02-11T10:37:46.738Z,39.50
2019-02-11T10:40:15.283Z,39.60
2019-02-11T10:42:43.752Z,39.60
2019-02-11T10:45:15.142Z,39.50
2019-02-11T10:47:46.196Z,38.50
2019-02-11T10:50:17.005Z,38.80
2019-02-11T10:52:45.764Z,38.30
2019-02-11T10:55:19.305Z,38.70
2019-02-11T10:57:47.850Z,38.10
2019-02-11T11:00:36.283Z,38.20
2019-02-11T11:03:05.052Z,39.00
2019-02-11T11:05:33.672Z,38.60
2019-02-11T11:08:02.225Z,39.10
2019-02-11T11:10:36.571Z,39.00
2019-02-11T11:13:05.197Z,39.00
2019-02-11T11:15:34.045Z,39.00
2019-02-11T11:18:02.658Z,37.90
2019-02-11T11:20:31.588Z,38.30
2019-02-11T11:23:00.167Z,38.10
2019-02-11T11:25:28.717Z,37.80
2019-02-11T11:27:57.275Z,37.80
2019-02-11T11:30:26.168Z,37.50
2019-02-11T11:32:54.817Z,37.60
2019-02-11T11:35:23.407Z,37.40
2019-02-11T11:37:52.030Z,37.60
2019-02-11T11:40:21.947Z,37.80
2019-02-11T11:42:50.482Z,38.00
2019-02-11T11:45:22.085Z,38.40
2019-02-11T11:47:50.742Z,38.40
2019-02-11T11:50:19.342Z,38.50
2019-02-11T11:52:48.002Z,39.30
2019-02-11T11:55:19.026Z,39.40
2019-02-11T11:57:47.694Z,39.70
2019-02-11T12:00:21.374Z,39.50
2019-02-11T12:03:02.291Z,39.30
2019-02-11T12:05:20.573Z,39.10
2019-02-11T12:07:49.204Z,39.20
2019-02-11T12:10:18.617Z,39.00
2019-02-11T12:12:47.329Z,38.80
2019-02-11T12:15:23.258Z,38.60
2019-02-11T12:17:52.062Z,38.70
2019-02-11T12:20:20.628Z,39.30
2019-02-11T12:22:49.315Z,38.80
2019-02-11T12:25:18.515Z,38.90
2019-02-11T12:27:47.102Z,39.20
2019-02-11T12:30:20.994Z,39.50
2019-02-11T12:32:49.530Z,39.70
2019-02-11T12:35:18.269Z,39.70
2019-02-11T12:37:46.944Z,39.80
2019-02-11T12:40:15.538Z,40.00
2019-02-11T12:42:44.096Z,40.20
2019-02-11T12:45:18.652Z,40.60
2019-02-11T12:47:47.357Z,40.80
2019-02-11T12:50:17.516Z,41.20
2019-02-11T12:52:46.155Z,41.30
2019-02-11T12:55:16.292Z,41.50
2019-02-11T12:57:44.835Z,41.70
2019-02-11T13:00:21.793Z,41.70
2019-02-11T13:02:50.838Z,41.70
2019-02-11T13:05:23.068Z,42.00
2019-02-11T13:07:50.064Z,42.30
2019-02-11T13:10:21.173Z,42.50
2019-02-11T13:12:49.837Z,42.60
2019-02-11T13:15:52.679Z,42.60
2019-02-11T13:17:49.581Z,42.70
2019-02-11T13:20:18.875Z,42.70
2019-02-11T13:22:47.903Z,42.70
2019-02-11T13:25:18.404Z,42.60
2019-02-11T13:27:47.230Z,42.70
2019-02-11T13:30:26.367Z,42.60
2019-02-11T13:32:54.939Z,42.40
2019-02-11T13:35:23.483Z,42.20
2019-02-11T13:37:55.141Z,42.30
2019-02-11T13:40:22.385Z,41.80
2019-02-11T13:42:50.974Z,41.90
2019-02-11T13:45:20.822Z,42.00
2019-02-11T13:47:55.396Z,42.00
2019-02-11T13:50:27.547Z,41.90
2019-02-11T13:52:56.821Z,41.80
2019-02-11T13:55:30.247Z,41.70
2019-02-11T13:57:55.923Z,41.80
2019-02-11T14:00:27.371Z,41.90
2019-02-11T14:03:00.276Z,41.70
2019-02-11T14:05:29.741Z,41.80
2019-02-11T14:07:59.996Z,41.90
2019-02-11T14:10:29.209Z,41.80
2019-02-11T14:12:58.237Z,41.80
2019-02-11T14:15:26.956Z,41.50
2019-02-11T14:18:11.100Z,41.40
2019-02-11T14:20:28.975Z,41.20
2019-02-11T14:22:57.541Z,41.20
2019-02-11T14:25:42.309Z,41.10
2019-02-11T14:27:56.370Z,41.30
2019-02-11T14:30:25.082Z,41.40
2019-02-11T14:32:53.938Z,41.30
2019-02-11T14:35:22.524Z,41.10
2019-02-11T14:37:51.119Z,41.10
2019-02-11T14:40:19.703Z,41.20
2019-02-11T14:42:48.227Z,41.20
2019-02-11T14:45:20.773Z,41.30
2019-02-11T14:47:49.377Z,41.30
2019-02-11T14:50:17.909Z,41.30
2019-02-11T14:52:46.400Z,41.20
2019-02-11T14:55:15.035Z,41.10
2019-02-11T14:57:43.693Z,41.10
2019-02-11T15:00:19.618Z,41.20
2019-02-11T15:02:48.628Z,41.00
2019-02-11T15:05:17.923Z,41.00
2019-02-11T15:07:46.732Z,40.90
2019-02-11T15:10:15.984Z,40.90
2019-02-11T15:12:44.494Z,41.00
2019-02-11T15:15:13.910Z,40.70
2019-02-11T15:17:44.571Z,41.00
2019-02-11T15:20:18.965Z,41.10
2019-02-11T15:22:47.509Z,41.10
2019-02-11T15:25:17.915Z,41.30
2019-02-11T15:27:46.488Z,41.40
2019-02-11T15:30:19.590Z,41.60
2019-02-11T15:32:48.257Z,41.70
2019-02-11T15:35:16.883Z,41.80
2019-02-11T15:37:45.420Z,41.70
2019-02-11T15:40:19.247Z,41.80
2019-02-11T15:42:47.747Z,41.70
2019-02-11T15:45:16.399Z,41.80
2019-02-11T15:47:45.707Z,41.90
2019-02-11T15:50:20.119Z,41.80
2019-02-11T15:52:48.765Z,41.90
2019-02-11T15:55:19.484Z,42.00
2019-02-11T15:57:48.051Z,42.20
2019-02-11T16:00:23.961Z,42.30
2019-02-11T16:02:52.497Z,42.20
2019-02-11T16:05:21.171Z,42.20
2019-02-11T16:07:50.034Z,42.00
2019-02-11T16:10:28.953Z,42.10
2019-02-11T16:12:57.713Z,42.40
2019-02-11T16:15:26.397Z,42.60
2019-02-11T16:17:54.956Z,42.80
2019-02-11T16:20:23.583Z,43.00
2019-02-11T16:22:52.152Z,43.10
2019-02-11T16:25:20.783Z,43.10
2019-02-11T16:27:49.359Z,43.30
2019-02-11T16:30:29.805Z,43.30
2019-02-11T16:32:58.389Z,43.40
2019-02-11T16:35:26.927Z,43.30
2019-02-11T16:37:55.490Z,43.30
2019-02-11T16:40:29.514Z,43.80
2019-02-11T16:42:58.087Z,43.40
2019-02-11T16:45:26.735Z,43.30
2019-02-11T16:47:55.328Z,43.30
2019-02-11T16:50:23.972Z,43.30
2019-02-11T16:52:52.610Z,43.50
2019-02-11T16:55:21.224Z,43.20
2019-02-11T16:57:49.767Z,43.60
2019-02-11T17:00:19.505Z,44.40
2019-02-11T17:02:48.237Z,45.00
2019-02-11T17:05:16.886Z,44.90
2019-02-11T17:07:45.441Z,45.00
2019-02-11T17:10:15.075Z,45.00
2019-02-11T17:12:43.794Z,45.10
2019-02-11T17:15:19.490Z,45.30
2019-02-11T17:17:48.064Z,45.20
2019-02-11T17:20:17.292Z,45.40
2019-02-11T17:22:46.023Z,45.50
2019-02-11T17:25:15.325Z,45.50
2019-02-11T17:27:44.131Z,45.60
2019-02-11T17:30:27.590Z,45.70
2019-02-11T17:32:56.219Z,45.70
2019-02-11T17:35:24.728Z,45.70
2019-02-11T17:37:53.264Z,45.60
2019-02-11T17:40:21.751Z,45.40
2019-02-11T17:42:50.609Z,45.30
2019-02-11T17:45:30.340Z,45.20
2019-02-11T17:47:58.930Z,44.80
2019-02-11T17:50:27.546Z,44.50
2019-02-11T17:52:59.192Z,44.40
2019-02-11T17:55:27.813Z,44.10
2019-02-11T17:57:56.327Z,44.00
2019-02-11T18:00:36.020Z,43.70
2019-02-11T18:03:04.859Z,43.80
2019-02-11T18:05:33.448Z,43.50
2019-02-11T18:08:02.038Z,43.50
2019-02-11T18:10:30.836Z,43.40
2019-02-11T18:12:59.385Z,43.30
2019-02-11T18:15:28.014Z,43.20
2019-02-11T18:17:56.653Z,43.00
2019-02-11T18:20:25.236Z,43.20
2019-02-11T18:22:53.798Z,43.20
2019-02-11T18:25:22.438Z,43.30
2019-02-11T18:27:50.925Z,43.20
2019-02-11T18:30:19.733Z,43.00
2019-02-11T18:32:48.479Z,42.80
2019-02-11T18:35:18.781Z,42.60
2019-02-11T18:37:47.903Z,42.50
2019-02-11T18:40:17.005Z,42.50
2019-02-11T18:42:45.766Z,42.20
2019-02-11T18:45:18.212Z,42.20
2019-02-11T18:47:46.800Z,42.20
2019-02-11T18:50:16.267Z,42.30
2019-02-11T18:52:44.873Z,42.30
2019-02-11T18:55:15.563Z,41.90
2019-02-11T18:57:44.111Z,41.90
2019-02-11T19:00:17.066Z,42.00
2019-02-11T19:02:45.803Z,42.00
2019-02-11T19:05:15.704Z,42.00
2019-02-11T19:07:44.448Z,41.80
2019-02-11T19:10:14.829Z,41.60
2019-02-11T19:12:44.030Z,41.50
2019-02-11T19:15:15.370Z,41.30
2019-02-11T19:17:43.934Z,41.20
2019-02-11T19:20:15.269Z,41.20
2019-02-11T19:22:44.727Z,41.30
2019-02-11T19:25:13.769Z,41.20
2019-02-11T19:27:42.483Z,41.30
2019-02-11T19:30:14.124Z,41.30
2019-02-11T19:32:42.724Z,41.40
2019-02-11T19:35:11.297Z,41.50
2019-02-11T19:37:39.867Z,41.50
2019-02-11T19:40:11.159Z,41.70
2019-02-11T19:42:39.829Z,41.80
2019-02-11T19:45:11.481Z,41.80
2019-02-11T19:47:40.041Z,42.00
2019-02-11T19:50:14.068Z,42.00
2019-02-11T19:52:42.912Z,42.10
2019-02-11T19:55:13.432Z,42.10
2019-02-11T19:57:44.279Z,42.20
2019-02-11T20:00:16.154Z,42.30
2019-02-11T20:02:44.726Z,42.10
2019-02-11T20:05:13.676Z,41.60
2019-02-11T20:07:42.225Z,41.90
2019-02-11T20:10:13.333Z,41.80
2019-02-11T20:12:41.964Z,41.80
2019-02-11T20:15:16.054Z,41.80
2019-02-11T20:17:44.738Z,41.80
2019-02-11T20:20:16.032Z,41.80
2019-02-11T20:22:44.767Z,41.50
2019-02-11T20:25:13.686Z,41.90
2019-02-11T20:27:42.671Z,41.50
2019-02-11T20:30:19.579Z,41.60
2019-02-11T20:32:48.120Z,41.40
2019-02-11T20:35:16.775Z,41.40
2019-02-11T20:37:45.427Z,41.30
2019-02-11T20:40:19.473Z,41.30
2019-02-11T20:42:48.027Z,41.40
2019-02-11T20:45:19.330Z,41.00
2019-02-11T20:47:47.923Z,41.20
2019-02-11T20:50:16.705Z,41.20
2019-02-11T20:52:45.306Z,41.10
2019-02-11T20:55:14.731Z,41.00
2019-02-11T20:57:44.466Z,41.10
2019-02-11T21:00:18.172Z,40.90
2019-02-11T21:02:46.682Z,40.80
2019-02-11T21:05:15.909Z,40.70
2019-02-11T21:07:44.550Z,40.80
2019-02-11T21:10:18.099Z,40.70
2019-02-11T21:12:46.677Z,40.60
2019-02-11T21:15:16.606Z,40.40
2019-02-11T21:17:45.205Z,40.20
2019-02-11T21:20:17.857Z,40.20
2019-02-11T21:22:46.700Z,40.10
2019-02-11T21:25:15.408Z,40.00
2019-02-11T21:27:43.981Z,39.70
2019-02-11T21:30:14.231Z,39.70
2019-02-11T21:32:42.880Z,39.70
2019-02-11T21:35:12.333Z,39.80
2019-02-11T21:37:40.969Z,39.50
2019-02-11T21:40:09.706Z,39.50
2019-02-11T21:42:38.318Z,39.60
2019-02-11T21:45:12.227Z,39.60
2019-02-11T21:47:40.812Z,39.60
2019-02-11T21:50:26.110Z,39.50
2019-02-11T21:52:48.184Z,39.50
2019-02-11T21:55:18.962Z,39.40
2019-02-11T21:57:47.513Z,39.20
2019-02-11T22:00:18.889Z,39.20
2019-02-11T22:02:47.526Z,38.90
2019-02-11T22:05:16.167Z,38.80
2019-02-11T22:07:44.798Z,38.90
2019-02-11T22:10:15.483Z,38.90
2019-02-11T22:12:44.132Z,38.90
2019-02-11T22:15:14.021Z,38.80
2019-02-11T22:17:42.624Z,38.80
2019-02-11T22:20:14.328Z,38.80
2019-02-11T22:22:42.937Z,38.80
2019-02-11T22:25:12.610Z,38.60
2019-02-11T22:27:41.222Z,38.70
2019-02-11T22:30:18.656Z,38.70
2019-02-11T22:32:47.275Z,38.60
2019-02-11T22:35:15.762Z,38.60
2019-02-11T22:37:44.707Z,38.50
2019-02-11T22:40:14.800Z,38.60
2019-02-11T22:42:43.414Z,38.50
2019-02-11T22:45:17.528Z,38.40
2019-02-11T22:47:46.011Z,38.00
2019-02-11T22:50:14.988Z,37.90
2019-02-11T22:52:43.529Z,37.90
2019-02-11T22:55:15.862Z,38.00
2019-02-11T22:57:44.502Z,37.90
2019-02-11T23:00:35.528Z,37.50
2019-02-11T23:03:05.202Z,37.30
2019-02-11T23:05:33.755Z,36.90
2019-02-11T23:08:02.289Z,36.70
2019-02-11T23:10:30.837Z,36.50
2019-02-11T23:12:59.340Z,36.30
2019-02-11T23:15:28.135Z,36.30
2019-02-11T23:17:56.630Z,36.10
2019-02-11T23:20:25.200Z,35.60
2019-02-11T23:22:53.682Z,35.60
2019-02-11T23:25:22.358Z,35.00
2019-02-11T23:27:50.933Z,35.10
2019-02-11T23:30:19.464Z,35.10
2019-02-11T23:32:48.213Z,34.90
2019-02-11T23:35:16.746Z,35.30
2019-02-11T23:37:45.462Z,35.00
2019-02-11T23:40:14.028Z,35.20
2019-02-11T23:42:42.614Z,34.70
2019-02-11T23:45:11.579Z,34.70
2019-02-11T23:47:40.151Z,34.50
2019-02-11T23:50:10.620Z,34.30
2019-02-11T23:52:39.185Z,34.50
2019-02-11T23:55:09.373Z,34.20
2019-02-11T23:57:37.953Z,34.40
